Time;durP1;ratioP1;P1;durP2;ratioP2;P2;SDS_P1;SDS_P2;PMS_P1;PMS_P2;Temp;Humidity;BMP_temperature;BMP_pressure;BME280_temperature;BME280_humidity;BME280_pressure;Samples;Min_cycle;Max_cycle;Signal;HPM_P1;HPM_P2
2023/06/12 00:01:54;;;;;;;9.27;5.07;;;;;;;;;;4981253;28;20027;-74
2023/06/12 00:04:26;;;;;;;8.00;5.60;;;;;;;;;;4999351;28;20046;-77
2023/06/12 00:07:06;;;;;;;8.15;5.45;;;;;;;;;;5000829;28;20026;-76
2023/06/12 00:09:33;;;;;;;10.23;5.35;;;;;;;;;;5000466;28;20027;-76
2023/06/12 00:11:59;;;;;;;7.25;5.40;;;;;;;;;;4999254;28;20027;-76
2023/06/12 00:14:34;;;;;;;9.88;4.38;;;;;;;;;;4999712;28;20537;-77
2023/06/12 00:17:04;;;;;;;8.07;4.45;;;;;;;;;;4982926;28;20033;-76
2023/06/12 00:19:38;;;;;;;9.90;4.95;;;;;;;;;;4983356;28;20036;-76
2023/06/12 00:22:04;;;;;;;7.13;4.60;;;;;;;;;;4981401;28;20046;-76
2023/06/12 00:24:37;;;;;;;9.05;5.10;;;;;;;;;;4982483;28;20023;-75
2023/06/12 00:27:04;;;;;;;6.65;4.65;;;;;;;;;;4982213;28;20081;-79
2023/06/12 00:29:44;;;;;;;;;;;;;;;;;;;;;
2023/06/12 00:32:12;;;;;;;6.68;4.85;;;;;;;;;;5000561;28;20113;-77
2023/06/12 00:34:53;;;;;;;4.95;4.07;;;;;;;;;;4983644;28;20026;-76
2023/06/12 00:37:27;;;;;;;5.28;4.65;;;;;;;;;;4983152;28;20027;-76
2023/06/12 00:40:16;;;;;;;4.88;3.97;;;;;;;;;;5001633;28;20086;-75
2023/06/12 00:42:50;;;;;;;7.55;5.10;;;;;;;;;;4982685;28;20093;-76
2023/06/12 00:45:39;;;;;;;9.48;4.35;;;;;;;;;;4985590;28;20022;-77
2023/06/12 00:48:08;;;;;;;8.75;5.20;;;;;;;;;;5005954;28;20049;-73
2023/06/12 00:50:41;;;;;;;8.27;5.00;;;;;;;;;;4988774;28;20045;-74
2023/06/12 00:53:14;;;;;;;7.30;4.68;;;;;;;;;;5002555;28;20104;-76
2023/06/12 00:55:50;;;;;;;6.40;5.35;;;;;;;;;;4982502;28;20035;-75
2023/06/12 00:58:20;;;;;;;8.82;5.20;;;;;;;;;;4982256;28;20129;-76
2023/06/12 01:00:54;;;;;;;10.43;5.15;;;;;;;;;;5001028;28;20033;-76
2023/06/12 01:03:44;;;;;;;8.88;5.10;;;;;;;;;;4985551;28;20050;-75
2023/06/12 01:06:16;;;;;;;7.32;4.75;;;;;;;;;;4986207;28;20038;-75
2023/06/12 01:09:33;;;;;;;9.82;6.10;;;;;;;;;;4985403;28;20041;-76
2023/06/12 01:12:10;;;;;;;8.40;5.80;;;;;;;;;;4993866;28;20070;-76
2023/06/12 01:14:41;;;;;;;9.63;5.35;;;;;;;;;;4985095;28;20022;-77
2023/06/12 01:17:11;;;;;;;7.72;5.57;;;;;;;;;;4985860;28;20553;-76
2023/06/12 01:19:51;;;;;;;7.00;4.85;;;;;;;;;;4983465;28;20041;-76
2023/06/12 01:22:32;;;;;;;8.90;5.38;;;;;;;;;;4985466;28;20022;-75
2023/06/12 01:25:23;;;;;;;8.43;5.82;;;;;;;;;;4985112;28;20109;-76
2023/06/12 01:28:31;;;;;;;13.27;6.10;;;;;;;;;;5002762;28;20026;-76
2023/06/12 01:31:06;;;;;;;10.27;5.80;;;;;;;;;;4984148;28;20042;-76
2023/06/12 01:33:43;;;;;;;10.57;6.25;;;;;;;;;;4981433;28;20040;-76
2023/06/12 01:36:15;;;;;;;11.38;5.85;;;;;;;;;;4984257;28;20121;-75
2023/06/12 01:38:54;;;;;;;9.20;5.75;;;;;;;;;;4984450;28;20093;-76
2023/06/12 01:41:26;;;;;;;6.82;5.18;;;;;;;;;;4984637;28;20023;-76
2023/06/12 01:44:09;;;;;;;9.75;4.45;;;;;;;;;;5002303;28;20080;-75
2023/06/12 01:46:41;;;;;;;8.75;4.15;;;;;;;;;;4985219;28;20026;-74
2023/06/12 01:49:22;;;;;;;8.02;5.30;;;;;;;;;;4985759;28;20089;-75
2023/06/12 01:51:48;;;;;;;8.30;4.35;;;;;;;;;;4983688;28;20077;-76
2023/06/12 01:54:18;;;;;;;5.72;4.50;;;;;;;;;;4984478;28;20117;-76
2023/06/12 01:57:15;;;;;;;7.10;4.63;;;;;;;;;;5001401;28;20030;-75
2023/06/12 01:59:40;;;;;;;5.25;4.32;;;;;;;;;;5001385;28;20162;-75
2023/06/12 02:02:13;;;;;;;6.60;4.32;;;;;;;;;;4983882;28;20076;-76
2023/06/12 02:04:40;;;;;;;9.75;5.00;;;;;;;;;;5001092;28;20463;-75
2023/06/12 02:07:17;;;;;;;6.63;5.15;;;;;;;;;;5000578;28;20045;-75
2023/06/12 02:10:07;;;;;;;9.18;6.00;;;;;;;;;;4981303;28;20046;-76
2023/06/12 02:12:33;;;;;;;12.40;6.47;;;;;;;;;;4999778;28;20474;-74
2023/06/12 02:15:20;;;;;;;10.60;7.03;;;;;;;;;;4997821;28;20046;-76
2023/06/12 02:17:46;;;;;;;10.73;7.20;;;;;;;;;;4982350;28;20490;-75
2023/06/12 02:20:16;;;;;;;10.00;7.57;;;;;;;;;;4983249;28;20026;-76
2023/06/12 02:22:42;;;;;;;13.75;7.57;;;;;;;;;;4982231;28;20027;-76
2023/06/12 02:25:11;;;;;;;11.18;7.60;;;;;;;;;;4998598;28;20034;-76
2023/06/12 02:27:43;;;;;;;14.30;7.68;;;;;;;;;;5000546;28;20026;-76
2023/06/12 02:30:13;;;;;;;;;;;;;;;;;;4983892;28;20030;-76
2023/06/12 02:32:57;;;;;;;17.10;7.90;;;;;;;;;;4982053;28;19980;-75
2023/06/12 02:35:33;;;;;;;11.77;6.32;;;;;;;;;;4982725;28;20049;-76
2023/06/12 02:38:09;;;;;;;13.63;7.13;;;;;;;;;;4967093;28;20096;-75
2023/06/12 02:40:35;;;;;;;12.48;6.80;;;;;;;;;;4999459;28;20056;-75
2023/06/12 02:43:05;;;;;;;13.60;7.28;;;;;;;;;;5000320;28;20069;-74
2023/06/12 02:45:31;;;;;;;11.07;6.68;;;;;;;;;;4981966;28;20105;-76
2023/06/12 02:48:00;;;;;;;11.02;7.10;;;;;;;;;;4982700;28;20041;-74
2023/06/12 02:50:29;;;;;;;11.98;6.85;;;;;;;;;;4999376;28;20022;-76
2023/06/12 02:53:13;;;;;;;;;;;;;;;;;;;;;
2023/06/12 02:55:44;;;;;;;9.45;7.07;;;;;;;;;;4999305;28;20577;-75
2023/06/12 02:58:14;;;;;;;9.53;6.67;;;;;;;;;;4982403;28;20477;-77
2023/06/12 03:00:40;;;;;;;13.70;7.18;;;;;;;;;;4982493;28;20732;-76
2023/06/12 03:03:14;;;;;;;10.77;6.60;;;;;;;;;;5000891;28;20565;-76
2023/06/12 03:05:56;;;;;;;10.93;6.95;;;;;;;;;;4999232;28;20048;-75
2023/06/12 03:08:26;;;;;;;12.55;6.72;;;;;;;;;;4983464;28;20141;-76
2023/06/12 03:10:52;;;;;;;11.30;7.07;;;;;;;;;;4982410;28;20026;-75
2023/06/12 03:13:23;;;;;;;15.00;6.68;;;;;;;;;;4981174;28;20141;-75
2023/06/12 03:16:09;;;;;;;12.68;7.00;;;;;;;;;;5001111;28;20038;-75
2023/06/12 03:18:36;;;;;;;13.13;7.22;;;;;;;;;;4983061;28;20033;-76
2023/06/12 03:21:02;;;;;;;12.27;7.55;;;;;;;;;;4983360;28;20015;-75
2023/06/12 03:23:28;;;;;;;17.23;7.15;;;;;;;;;;5000644;28;20109;-75
2023/06/12 03:25:55;;;;;;;16.58;7.00;;;;;;;;;;4982137;28;20030;-77
2023/06/12 03:28:34;;;;;;;25.00;8.15;;;;;;;;;;4983405;28;20061;-76
2023/06/12 03:31:07;;;;;;;14.13;7.93;;;;;;;;;;4984149;28;20026;-77
2023/06/12 03:33:37;;;;;;;16.50;7.55;;;;;;;;;;4981602;28;20061;-76
2023/06/12 03:36:07;;;;;;;16.70;7.50;;;;;;;;;;4981570;28;20034;-76
2023/06/12 03:38:35;;;;;;;13.35;7.05;;;;;;;;;;4982178;28;20128;-76
2023/06/12 03:41:08;;;;;;;12.32;7.82;;;;;;;;;;4999231;28;20387;-75
2023/06/12 03:43:37;;;;;;;9.65;6.80;;;;;;;;;;4982468;28;20390;-75
2023/06/12 03:46:05;;;;;;;11.85;7.43;;;;;;;;;;5000409;28;20090;-74
2023/06/12 03:48:31;;;;;;;12.68;8.30;;;;;;;;;;4984066;28;20030;-75
2023/06/12 03:51:09;;;;;;;14.52;7.35;;;;;;;;;;4983220;28;20025;-78
2023/06/12 03:56:41;;;;;;;11.75;7.78;;;;;;;;;;4997794;28;20065;-76
2023/06/12 03:59:07;;;;;;;10.43;7.32;;;;;;;;;;4968431;28;20034;-77
2023/06/12 04:01:42;;;;;;;13.23;7.63;;;;;;;;;;5001590;28;20022;-76
2023/06/12 04:04:14;;;;;;;12.00;7.78;;;;;;;;;;4980515;28;20050;-75
2023/06/12 04:06:50;;;;;;;15.05;7.15;;;;;;;;;;4980723;28;20026;-77
2023/06/12 04:09:16;;;;;;;9.75;6.93;;;;;;;;;;4979394;28;20035;-75
2023/06/12 04:11:48;;;;;;;12.75;7.68;;;;;;;;;;4979431;28;20101;-77
2023/06/12 04:14:15;;;;;;;17.55;7.40;;;;;;;;;;4981224;28;20033;-76
2023/06/12 04:16:50;;;;;;;12.20;8.00;;;;;;;;;;4979119;28;20046;-73
2023/06/12 04:19:48;;;;;;;11.75;6.80;;;;;;;;;;4979261;28;20027;-76
2023/06/12 04:22:19;;;;;;;13.60;6.28;;;;;;;;;;4939433;29;20320;-75
2023/06/12 04:24:52;;;;;;;;;;;;;;;;;;4924516;29;20098;-76
2023/06/12 04:27:21;;;;;;;11.05;6.05;;;;;;;;;;4921815;28;19941;-76
2023/06/12 04:29:47;;;;;;;7.57;5.63;;;;;;;;;;4979020;28;20026;-76
2023/06/12 04:32:22;;;;;;;8.25;5.82;;;;;;;;;;4980316;28;20050;-76
2023/06/12 04:34:54;;;;;;;11.55;6.97;;;;;;;;;;4980037;28;20031;-75
2023/06/12 04:37:27;;;;;;;;;;;;;;;;;;4980974;28;20046;-77
2023/06/12 04:39:57;;;;;;;8.85;6.13;;;;;;;;;;4982924;28;19916;-76
2023/06/12 04:42:26;;;;;;;12.10;5.95;;;;;;;;;;4981831;28;20034;-76
2023/06/12 04:44:55;;;;;;;9.13;5.90;;;;;;;;;;4943373;29;20122;-75
2023/06/12 04:47:28;;;;;;;11.50;5.70;;;;;;;;;;4928311;29;20035;-75
2023/06/12 04:50:01;;;;;;;11.13;6.28;;;;;;;;;;4945143;29;20164;-76
2023/06/12 04:52:32;;;;;;;12.40;6.53;;;;;;;;;;4942737;29;20532;-76
2023/06/12 04:54:59;;;;;;;9.90;5.82;;;;;;;;;;4926900;29;20042;-76
2023/06/12 04:57:29;;;;;;;8.43;5.55;;;;;;;;;;4928974;29;20040;-76
2023/06/12 05:00:13;;;;;;;9.82;5.10;;;;;;;;;;4929991;29;20039;-77
2023/06/12 05:02:46;;;;;;;10.57;5.20;;;;;;;;;;4943245;29;20131;-78
2023/06/12 05:05:16;;;;;;;8.27;5.55;;;;;;;;;;4929326;29;20040;-75
2023/06/12 05:07:46;;;;;;;9.63;5.07;;;;;;;;;;4943542;29;20062;-77
2023/06/12 05:10:17;;;;;;;8.45;5.55;;;;;;;;;;4951900;29;20039;-76
2023/06/12 05:12:49;;;;;;;14.30;6.07;;;;;;;;;;4938733;29;20090;-77
2023/06/12 05:15:15;;;;;;;10.02;5.60;;;;;;;;;;4943595;29;20796;-76
2023/06/12 05:17:52;;;;;;;8.90;5.18;;;;;;;;;;4941369;29;20053;-76
2023/06/12 05:20:19;;;;;;;11.05;5.60;;;;;;;;;;4953556;29;20027;-76
2023/06/12 05:22:50;;;;;;;10.35;5.47;;;;;;;;;;4989522;28;20057;-77
2023/06/12 05:25:30;;;;;;;8.32;5.38;;;;;;;;;;5000010;28;20022;-77
2023/06/12 05:27:57;;;;;;;13.13;6.07;;;;;;;;;;5000648;28;20474;-76
2023/06/12 05:30:38;;;;;;;15.95;5.80;;;;;;;;;;5001791;28;20018;-77
2023/06/12 05:33:10;;;;;;;7.15;5.45;;;;;;;;;;4999978;28;20026;-76
2023/06/12 05:35:39;;;;;;;7.20;5.68;;;;;;;;;;5000367;28;20080;-76
2023/06/12 05:38:09;;;;;;;7.43;5.40;;;;;;;;;;5000083;28;20041;-76
2023/06/12 05:40:39;;;;;;;10.30;5.47;;;;;;;;;;5002146;28;20085;-77
2023/06/12 05:43:13;;;;;;;15.20;5.30;;;;;;;;;;5002797;28;20038;-77
2023/06/12 05:45:39;;;;;;;10.23;5.18;;;;;;;;;;4999608;28;20045;-76
2023/06/12 05:48:20;;;;;;;11.60;6.03;;;;;;;;;;5001486;28;20530;-75
2023/06/12 05:50:45;;;;;;;9.70;6.15;;;;;;;;;;5001032;28;20034;-76
2023/06/12 05:53:13;;;;;;;13.10;6.60;;;;;;;;;;5001242;28;20137;-76
2023/06/12 05:55:45;;;;;;;11.70;5.10;;;;;;;;;;4999433;28;20120;-79
2023/06/12 05:58:14;;;;;;;8.75;5.18;;;;;;;;;;4999302;28;20033;-76
2023/06/12 06:00:42;;;;;;;7.60;5.05;;;;;;;;;;4996951;28;20031;-75
2023/06/12 06:03:19;;;;;;;13.20;5.78;;;;;;;;;;4984886;28;20072;-75
2023/06/12 06:05:48;;;;;;;8.23;4.85;;;;;;;;;;4985251;28;20038;-77
2023/06/12 06:08:15;;;;;;;9.38;5.25;;;;;;;;;;4994412;28;20041;-76
2023/06/12 06:10:46;;;;;;;7.50;4.60;;;;;;;;;;5007846;28;20030;-76
2023/06/12 06:13:17;;;;;;;10.40;6.15;;;;;;;;;;5001778;28;20096;-77
2023/06/12 06:15:44;;;;;;;11.25;6.53;;;;;;;;;;4994625;28;20041;-76
2023/06/12 06:18:10;;;;;;;22.05;10.75;;;;;;;;;;5001379;28;20032;-76
2023/06/12 06:20:42;;;;;;;19.65;7.07;;;;;;;;;;5019081;28;20025;-76
2023/06/12 06:23:09;;;;;;;10.65;5.82;;;;;;;;;;5011961;28;20028;-75
2023/06/12 06:25:46;;;;;;;7.70;5.05;;;;;;;;;;5017132;28;20048;-77
2023/06/12 06:28:20;;;;;;;7.65;5.25;;;;;;;;;;4998262;28;20033;-77
2023/06/12 06:30:55;;;;;;;11.95;6.22;;;;;;;;;;5001300;28;20060;-79
2023/06/12 06:33:22;;;;;;;9.73;6.35;;;;;;;;;;4998189;28;20069;-79
2023/06/12 06:35:57;;;;;;;11.68;6.80;;;;;;;;;;5016287;28;20502;-73
2023/06/12 06:38:27;;;;;;;12.63;6.05;;;;;;;;;;5015591;28;20037;-76
2023/06/12 06:41:02;;;;;;;7.53;4.55;;;;;;;;;;4995210;28;20140;-75
2023/06/12 06:43:42;;;;;;;9.23;5.72;;;;;;;;;;4998914;28;20021;-77
2023/06/12 06:46:11;;;;;;;15.48;6.03;;;;;;;;;;5015002;28;20168;-75
2023/06/12 06:48:37;;;;;;;11.60;5.40;;;;;;;;;;4999314;28;20033;-77
2023/06/12 06:51:07;;;;;;;12.35;5.60;;;;;;;;;;4998489;28;20116;-76
2023/06/12 06:53:53;;;;;;;9.40;5.45;;;;;;;;;;4998510;28;20036;-77
2023/06/12 06:56:25;;;;;;;10.02;6.53;;;;;;;;;;4999399;28;20478;-76
2023/06/12 06:58:56;;;;;;;10.65;5.70;;;;;;;;;;5016414;28;20037;-77
2023/06/12 07:01:34;;;;;;;11.85;5.78;;;;;;;;;;5016312;28;20550;-78
2023/06/12 07:04:07;;;;;;;11.77;5.55;;;;;;;;;;4984371;28;20482;-75
2023/06/12 07:06:37;;;;;;;8.30;5.28;;;;;;;;;;4999122;28;20125;-75
2023/06/12 07:09:38;;;;;;;14.90;5.15;;;;;;;;;;5016396;28;20022;-77
2023/06/12 07:12:11;;;;;;;16.83;6.25;;;;;;;;;;4999836;28;20386;-76
2023/06/12 07:14:42;;;;;;;14.00;6.65;;;;;;;;;;4999533;28;20032;-79
2023/06/12 07:17:20;;;;;;;;;;;;;;;;;;5001201;28;20036;-75
2023/06/12 07:19:47;;;;;;;12.70;5.57;;;;;;;;;;4998510;28;19963;-77
2023/06/12 07:22:14;;;;;;;6.60;5.03;;;;;;;;;;5016950;28;20035;-77
2023/06/12 07:25:10;;;;;;;6.28;4.72;;;;;;;;;;4998819;28;20084;-76
2023/06/12 07:27:38;;;;;;;10.32;5.00;;;;;;;;;;4998468;28;20022;-76
2023/06/12 07:30:09;;;;;;;7.82;5.20;;;;;;;;;;5016490;28;20037;-78
2023/06/12 07:32:38;;;;;;;6.03;4.75;;;;;;;;;;5015491;28;20038;-77
2023/06/12 07:35:05;;;;;;;13.20;6.18;;;;;;;;;;4998582;28;20121;-76
2023/06/12 07:37:43;;;;;;;7.78;5.28;;;;;;;;;;4998658;28;20033;-76
2023/06/12 07:40:09;;;;;;;8.93;5.20;;;;;;;;;;4997724;28;20466;-76
2023/06/12 07:42:42;;;;;;;5.65;4.68;;;;;;;;;;4998982;28;20075;-77
2023/06/12 07:45:12;;;;;;;5.88;4.38;;;;;;;;;;5014905;28;20121;-78
2023/06/12 07:47:52;;;;;;;10.50;5.65;;;;;;;;;;5016124;28;20037;-76
2023/06/12 07:50:26;;;;;;;7.20;4.57;;;;;;;;;;4998696;28;20033;-77
2023/06/12 07:52:55;;;;;;;8.77;5.30;;;;;;;;;;4998147;28;20049;-77
2023/06/12 07:55:31;;;;;;;6.97;4.57;;;;;;;;;;5015598;28;20022;-78
2023/06/12 07:58:00;;;;;;;10.30;5.40;;;;;;;;;;5015899;28;20104;-78
2023/06/12 08:00:26;;;;;;;7.10;4.93;;;;;;;;;;4998370;28;20029;-76
2023/06/12 08:02:59;;;;;;;7.85;4.70;;;;;;;;;;5015565;28;20017;-76
2023/06/12 08:05:34;;;;;;;12.13;5.22;;;;;;;;;;5012740;28;20038;-76
2023/06/12 08:08:18;;;;;;;6.75;4.50;;;;;;;;;;4981207;28;20049;-79
2023/06/12 08:10:53;;;;;;;8.30;4.00;;;;;;;;;;5013936;28;20079;-77
2023/06/12 08:13:21;;;;;;;8.05;4.30;;;;;;;;;;4995919;28;20382;-77
2023/06/12 08:15:52;;;;;;;8.90;4.28;;;;;;;;;;4981262;28;20033;-76
2023/06/12 08:18:41;;;;;;;9.35;5.30;;;;;;;;;;4998898;28;20486;-76
2023/06/12 08:21:12;;;;;;;5.57;4.43;;;;;;;;;;4997640;28;20466;-77
2023/06/12 08:23:47;;;;;;;7.63;4.80;;;;;;;;;;4998396;28;20033;-79
2023/06/12 08:26:26;;;;;;;7.65;4.80;;;;;;;;;;4997952;28;20075;-76
2023/06/12 08:28:53;;;;;;;5.82;3.85;;;;;;;;;;4992606;28;20434;-77
2023/06/12 08:31:23;;;;;;;5.18;4.10;;;;;;;;;;5016550;28;20779;-76
2023/06/12 08:33:53;;;;;;;7.50;3.70;;;;;;;;;;5014110;28;20041;-78
2023/06/12 08:36:26;;;;;;;5.68;3.63;;;;;;;;;;4997777;28;20038;-77
2023/06/12 08:39:03;;;;;;;4.55;3.25;;;;;;;;;;4998215;28;20614;-77
2023/06/12 08:41:37;;;;;;;5.68;3.55;;;;;;;;;;4998897;28;20382;-78
2023/06/12 08:44:08;;;;;;;38.38;8.52;;;;;;;;;;5016111;28;20272;-79
2023/06/12 08:46:40;;;;;;;4.95;3.47;;;;;;;;;;4997875;28;20061;-75
2023/06/12 08:49:06;;;;;;;8.95;3.83;;;;;;;;;;5016596;28;20033;-78
2023/06/12 08:51:38;;;;;;;7.95;3.58;;;;;;;;;;4998635;28;20052;-76
2023/06/12 08:54:26;;;;;;;;;;;;;;;;;;;;;
2023/06/12 08:56:57;;;;;;;6.38;3.85;;;;;;;;;;5018216;28;20606;-76
2023/06/12 08:59:41;;;;;;;5.82;3.90;;;;;;;;;;4998857;28;20064;-80
2023/06/12 09:02:12;;;;;;;5.90;3.72;;;;;;;;;;5016978;28;20049;-76
2023/06/12 09:05:05;;;;;;;4.28;3.38;;;;;;;;;;4995187;28;20046;-77
2023/06/12 09:07:38;;;;;;;7.25;3.78;;;;;;;;;;4979130;28;20042;-75
2023/06/12 09:10:09;;;;;;;5.25;3.50;;;;;;;;;;4980554;28;20057;-77
2023/06/12 09:12:36;;;;;;;5.07;3.85;;;;;;;;;;4996756;28;20026;-75
2023/06/12 09:15:09;;;;;;;5.60;3.13;;;;;;;;;;4996194;28;20037;-75
2023/06/12 09:17:47;;;;;;;4.95;4.00;;;;;;;;;;4997276;28;20073;-76
2023/06/12 09:20:28;;;;;;;4.72;3.03;;;;;;;;;;4996823;28;20155;-76
2023/06/12 09:23:05;;;;;;;5.82;3.88;;;;;;;;;;4998054;28;20081;-77
2023/06/12 09:25:34;;;;;;;5.47;3.35;;;;;;;;;;5003057;28;20351;-75
2023/06/12 09:28:11;;;;;;;8.75;4.30;;;;;;;;;;5007426;28;20038;-77
2023/06/12 09:30:44;;;;;;;8.25;4.20;;;;;;;;;;5003789;28;20030;-75
2023/06/12 09:33:22;;;;;;;8.35;3.75;;;;;;;;;;5000426;28;20030;-77
2023/06/12 09:35:53;;;;;;;7.25;3.22;;;;;;;;;;5000235;28;20109;-75
2023/06/12 09:38:45;;;;;;;7.22;4.28;;;;;;;;;;4998427;28;20023;-77
2023/06/12 09:41:21;;;;;;;6.22;3.47;;;;;;;;;;4998311;28;20034;-77
2023/06/12 09:44:10;;;;;;;6.85;3.90;;;;;;;;;;4997613;28;20038;-76
2023/06/12 09:46:51;;;;;;;7.00;3.25;;;;;;;;;;4997879;28;20068;-76
2023/06/12 09:49:23;;;;;;;9.00;3.42;;;;;;;;;;4998495;28;20073;-76
2023/06/12 09:52:06;;;;;;;6.22;3.60;;;;;;;;;;5001013;28;20029;-76
2023/06/12 09:54:59;;;;;;;5.53;3.40;;;;;;;;;;5000157;28;20026;-76
2023/06/12 09:57:42;;;;;;;4.72;3.40;;;;;;;;;;4999823;28;20033;-77
2023/06/12 10:00:21;;;;;;;5.68;3.35;;;;;;;;;;5000171;28;20446;-77
2023/06/12 10:03:04;;;;;;;5.43;3.80;;;;;;;;;;4981787;28;20045;-76
2023/06/12 10:05:53;;;;;;;8.48;4.28;;;;;;;;;;5016810;28;20112;-76
2023/06/12 10:08:32;;;;;;;5.78;3.63;;;;;;;;;;5000371;28;20120;-77
2023/06/12 10:10:59;;;;;;;8.27;3.90;;;;;;;;;;5000036;28;20037;-76
2023/06/12 10:13:32;;;;;;;4.68;3.63;;;;;;;;;;4999419;28;20115;-77
2023/06/12 10:16:01;;;;;;;9.23;4.30;;;;;;;;;;5015881;28;20042;-76
2023/06/12 10:18:28;;;;;;;5.85;3.67;;;;;;;;;;4999185;28;20091;-77
2023/06/12 10:20:58;;;;;;;7.28;3.75;;;;;;;;;;4998986;28;20127;-78
2023/06/12 10:23:31;;;;;;;6.20;3.60;;;;;;;;;;5016274;28;20025;-79
2023/06/12 10:26:01;;;;;;;6.90;3.95;;;;;;;;;;4998507;28;20037;-76
2023/06/12 10:28:36;;;;;;;5.05;3.30;;;;;;;;;;4983104;28;20037;-77
2023/06/12 10:31:11;;;;;;;5.65;4.05;;;;;;;;;;4997962;28;20112;-76
2023/06/12 10:33:58;;;;;;;4.88;3.20;;;;;;;;;;4999346;28;20160;-77
2023/06/12 10:36:49;;;;;;;6.28;3.20;;;;;;;;;;4998499;28;20032;-77
2023/06/12 10:39:25;;;;;;;7.40;3.38;;;;;;;;;;4999087;28;20029;-77
2023/06/12 10:42:14;;;;;;;9.73;3.35;;;;;;;;;;4996601;28;20106;-77
2023/06/12 10:44:49;;;;;;;5.00;3.28;;;;;;;;;;5015183;28;20030;-77
2023/06/12 10:47:24;;;;;;;4.25;3.80;;;;;;;;;;4998228;28;20168;-78
2023/06/12 10:50:08;;;;;;;6.75;4.25;;;;;;;;;;4998158;28;20026;-77
2023/06/12 10:53:01;;;;;;;6.65;3.45;;;;;;;;;;5017369;28;20451;-78
2023/06/12 10:55:45;;;;;;;6.40;3.65;;;;;;;;;;4997812;28;20054;-75
2023/06/12 10:58:19;;;;;;;5.93;3.22;;;;;;;;;;4999337;28;20064;-77
2023/06/12 11:00:53;;;;;;;4.35;3.15;;;;;;;;;;4998258;28;20034;-76
2023/06/12 11:03:45;;;;;;;4.72;3.22;;;;;;;;;;5015827;28;20022;-76
2023/06/12 11:06:24;;;;;;;5.60;3.53;;;;;;;;;;4997717;28;20033;-75
2023/06/12 11:09:21;;;;;;;7.50;4.00;;;;;;;;;;5014731;28;20061;-78
2023/06/12 11:12:01;;;;;;;;;;;;;;;;;;;;;
2023/06/12 11:14:36;;;;;;;5.43;3.83;;;;;;;;;;5017168;28;20108;-76
2023/06/12 11:17:02;;;;;;;7.35;3.75;;;;;;;;;;4997488;28;20125;-74
2023/06/12 11:19:30;;;;;;;6.32;3.83;;;;;;;;;;5015795;28;20068;-76
2023/06/12 11:21:57;;;;;;;8.43;3.40;;;;;;;;;;4981389;28;20037;-76
2023/06/12 11:24:27;;;;;;;5.18;3.20;;;;;;;;;;4998082;28;20498;-75
2023/06/12 11:27:00;;;;;;;9.77;3.85;;;;;;;;;;4998272;28;20116;-75
2023/06/12 11:29:29;;;;;;;7.63;3.15;;;;;;;;;;5016853;28;20029;-79
2023/06/12 11:32:09;;;;;;;4.60;3.42;;;;;;;;;;4998103;28;20034;-76
2023/06/12 11:34:36;;;;;;;6.95;3.95;;;;;;;;;;4998211;28;20037;-76
2023/06/12 11:37:25;;;;;;;7.22;3.42;;;;;;;;;;5015652;28;20064;-75
2023/06/12 11:40:13;;;;;;;6.10;3.15;;;;;;;;;;4997696;28;20085;-77
2023/06/12 11:42:47;;;;;;;7.80;3.30;;;;;;;;;;4996462;28;20049;-76
2023/06/12 11:45:19;;;;;;;6.78;3.22;;;;;;;;;;4996769;28;20049;-79
2023/06/12 11:47:58;;;;;;;11.80;3.35;;;;;;;;;;5014427;28;20034;-77
2023/06/12 11:50:35;;;;;;;6.97;3.13;;;;;;;;;;4996019;28;20026;-76
2023/06/12 11:53:03;;;;;;;5.90;3.60;;;;;;;;;;4996178;28;20037;-76
2023/06/12 11:55:33;;;;;;;14.40;3.92;;;;;;;;;;4996763;28;20029;-76
2023/06/12 11:58:04;;;;;;;6.32;2.92;;;;;;;;;;5014246;28;20029;-76
2023/06/12 12:00:39;;;;;;;3.95;3.17;;;;;;;;;;4997492;28;20030;-76
2023/06/12 12:03:13;;;;;;;7.25;3.40;;;;;;;;;;4997478;28;20376;-75
2023/06/12 12:05:39;;;;;;;3.35;2.65;;;;;;;;;;4997083;28;20054;-76
2023/06/12 12:08:07;;;;;;;7.60;3.30;;;;;;;;;;4995691;28;20129;-76
2023/06/12 12:10:47;;;;;;;5.88;3.10;;;;;;;;;;4996968;28;20084;-76
2023/06/12 12:13:14;;;;;;;6.27;3.50;;;;;;;;;;5014599;28;20476;-75
2023/06/12 12:15:47;;;;;;;6.15;2.95;;;;;;;;;;4980057;28;20030;-75
2023/06/12 12:18:25;;;;;;;10.77;4.10;;;;;;;;;;4980751;28;20048;-77
2023/06/12 12:20:54;;;;;;;8.88;2.97;;;;;;;;;;5015220;28;20036;-76
2023/06/12 12:23:25;;;;;;;5.47;2.88;;;;;;;;;;4996799;28;20137;-75
2023/06/12 12:25:58;;;;;;;;;;;;;;;;;;4997258;28;20026;-76
2023/06/12 12:28:30;;;;;;;7.10;2.90;;;;;;;;;;4996750;28;19913;-76
2023/06/12 12:31:05;;;;;;;6.60;2.80;;;;;;;;;;4980260;28;20038;-76
2023/06/12 12:33:40;;;;;;;7.93;2.63;;;;;;;;;;4996064;28;20030;-75
2023/06/12 12:36:12;;;;;;;6.43;3.70;;;;;;;;;;4995504;28;20592;-77
2023/06/12 12:38:38;;;;;;;5.20;3.45;;;;;;;;;;4992965;28;20052;-75
2023/06/12 12:41:17;;;;;;;5.88;2.90;;;;;;;;;;4996233;28;20022;-78
2023/06/12 12:43:47;;;;;;;5.40;2.75;;;;;;;;;;4995559;28;20658;-75
2023/06/12 12:46:34;;;;;;;8.05;3.30;;;;;;;;;;5013417;28;20026;-77
2023/06/12 12:48:59;;;;;;;7.13;2.90;;;;;;;;;;4995857;28;20025;-76
2023/06/12 12:51:29;;;;;;;4.03;2.92;;;;;;;;;;5013859;28;20056;-76
2023/06/12 12:54:02;;;;;;;6.30;2.55;;;;;;;;;;5012545;28;20402;-77
2023/06/12 12:56:29;;;;;;;7.75;2.80;;;;;;;;;;4995652;28;20111;-76
2023/06/12 12:59:06;;;;;;;4.97;2.60;;;;;;;;;;4996669;28;20077;-77
2023/06/12 13:01:33;;;;;;;4.20;2.70;;;;;;;;;;4998356;28;20022;-77
2023/06/12 13:04:00;;;;;;;4.25;2.33;;;;;;;;;;5017303;28;20054;-79
2023/06/12 13:06:29;;;;;;;4.75;3.28;;;;;;;;;;4999658;28;20053;-77
2023/06/12 13:08:58;;;;;;;3.38;2.58;;;;;;;;;;5016866;28;20385;-75
2023/06/12 13:11:29;;;;;;;12.82;3.53;;;;;;;;;;4999747;28;20117;-78
2023/06/12 13:14:05;;;;;;;3.70;2.80;;;;;;;;;;4999836;28;20099;-77
2023/06/12 13:16:34;;;;;;;9.43;2.80;;;;;;;;;;4983483;28;20055;-76
2023/06/12 13:19:11;;;;;;;5.88;2.80;;;;;;;;;;4997154;28;20038;-77
2023/06/12 13:21:53;;;;;;;5.03;2.47;;;;;;;;;;4999861;28;20143;-75
2023/06/12 13:24:29;;;;;;;9.93;3.20;;;;;;;;;;5017149;28;20026;-77
2023/06/12 13:27:01;;;;;;;3.58;2.25;;;;;;;;;;5017950;28;20099;-75
2023/06/12 13:29:32;;;;;;;3.40;2.58;;;;;;;;;;5018506;28;20471;-76
2023/06/12 13:32:03;;;;;;;3.67;1.85;;;;;;;;;;4999943;28;20136;-76
2023/06/12 13:34:32;;;;;;;4.18;2.67;;;;;;;;;;4999138;28;20027;-75
2023/06/12 13:36:58;;;;;;;7.78;3.22;;;;;;;;;;5000869;28;20038;-76
2023/06/12 13:39:24;;;;;;;7.85;2.42;;;;;;;;;;5001341;28;20088;-76
2023/06/12 13:41:59;;;;;;;5.25;2.17;;;;;;;;;;5001223;28;20037;-77
2023/06/12 13:44:26;;;;;;;8.90;2.35;;;;;;;;;;5002785;28;20037;-76
2023/06/12 13:46:56;;;;;;;5.05;2.22;;;;;;;;;;5003371;28;20022;-75
2023/06/12 13:49:25;;;;;;;8.93;2.40;;;;;;;;;;5021827;28;20058;-76
2023/06/12 13:51:51;;;;;;;6.68;2.80;;;;;;;;;;5020900;28;20049;-80
2023/06/12 13:54:23;;;;;;;7.03;2.10;;;;;;;;;;4999198;28;20071;-75
2023/06/12 13:56:49;;;;;;;9.73;2.80;;;;;;;;;;4996261;28;20034;-75
2023/06/12 13:59:16;;;;;;;4.55;2.30;;;;;;;;;;4995027;28;20080;-76
2023/06/12 14:01:50;;;;;;;2.97;2.25;;;;;;;;;;5016227;28;20422;-77
2023/06/12 14:04:16;;;;;;;6.50;2.30;;;;;;;;;;4993539;28;20042;-76
2023/06/12 14:06:51;;;;;;;11.15;3.88;;;;;;;;;;4992040;28;20045;-77
2023/06/12 14:09:18;;;;;;;4.55;2.33;;;;;;;;;;4995918;28;20026;-75
2023/06/12 14:11:49;;;;;;;8.10;3.03;;;;;;;;;;4993864;28;20088;-78
2023/06/12 14:14:15;;;;;;;;;;;;;;;;;;4996029;28;20054;-78
2023/06/12 14:16:42;;;;;;;3.50;2.20;;;;;;;;;;4995647;28;19916;-77
2023/06/12 14:19:14;;;;;;;7.35;2.50;;;;;;;;;;4994517;28;20034;-76
2023/06/12 14:21:46;;;;;;;3.50;2.05;;;;;;;;;;4992947;28;20399;-76
2023/06/12 14:24:20;;;;;;;3.30;2.10;;;;;;;;;;4995350;28;20030;-77
2023/06/12 14:26:53;;;;;;;5.95;2.85;;;;;;;;;;4994751;28;20511;-76
2023/06/12 14:29:28;;;;;;;7.75;2.05;;;;;;;;;;4995521;28;20121;-77
2023/06/12 14:32:11;;;;;;;3.80;2.35;;;;;;;;;;4978752;28;20753;-76
2023/06/12 14:35:03;;;;;;;4.05;2.80;;;;;;;;;;4994555;28;20049;-76
2023/06/12 14:37:35;;;;;;;5.15;2.53;;;;;;;;;;4965694;28;20030;-80
2023/06/12 14:40:06;;;;;;;7.15;2.92;;;;;;;;;;4994766;28;20026;-76
2023/06/12 14:42:35;;;;;;;4.70;2.50;;;;;;;;;;4995038;28;20023;-78
2023/06/12 14:45:02;;;;;;;4.57;2.42;;;;;;;;;;4994053;28;20022;-75
2023/06/12 14:47:31;;;;;;;8.40;3.00;;;;;;;;;;4995363;28;20061;-77
2023/06/12 14:50:00;;;;;;;3.20;2.63;;;;;;;;;;4994612;28;20026;-77
2023/06/12 14:52:27;;;;;;;5.07;3.28;;;;;;;;;;4993011;28;20030;-77
2023/06/12 14:54:53;;;;;;;7.63;2.70;;;;;;;;;;4994078;28;20042;-76
2023/06/12 14:57:23;;;;;;;5.13;2.67;;;;;;;;;;4993575;28;20434;-76
2023/06/12 14:59:49;;;;;;;5.60;3.20;;;;;;;;;;4992751;28;20038;-76
2023/06/12 15:02:18;;;;;;;5.72;2.53;;;;;;;;;;4992650;28;20060;-76
2023/06/12 15:05:03;;;;;;;10.15;3.17;;;;;;;;;;5003336;28;20133;-77
2023/06/12 15:07:31;;;;;;;3.40;2.40;;;;;;;;;;4997489;28;20115;-78
2023/06/12 15:09:59;;;;;;;6.97;2.80;;;;;;;;;;4997206;28;20029;-77
2023/06/12 15:12:26;;;;;;;4.38;3.33;;;;;;;;;;4997412;28;20497;-77
2023/06/12 15:14:56;;;;;;;9.88;3.20;;;;;;;;;;4996854;28;20049;-76
2023/06/12 15:17:28;;;;;;;7.60;3.10;;;;;;;;;;4996293;28;20041;-77
2023/06/12 15:20:00;;;;;;;48.00;6.20;;;;;;;;;;4995611;28;20037;-76
2023/06/12 15:22:29;;;;;;;4.50;3.10;;;;;;;;;;5014484;28;20026;-78
2023/06/12 15:25:04;;;;;;;3.50;2.25;;;;;;;;;;4996615;28;20033;-77
2023/06/12 15:27:34;;;;;;;8.63;2.83;;;;;;;;;;4996505;28;20041;-76